^^
Station Historical Data
Daily Summary for February 1, 2017 Units:  Both    English   Metric
« Previous Day
Next Day »
Daily Weekly Monthly Yearly Custom
  High: Low: Average:
Temperature: 89.6 °F /  32 °C 67.6 °F /  19.8 °C 78.2 °F /  25.7 °C
Dew Point: 61.2 °F /  16.2 °C 33.8 °F /  1 °C 51.5 °F /  10.8 °C
Humidity: 71% 22% 42%
Wind Speed: 15.0mph /  24.1km/h - 3.4mph /  5.5km/h
Wind Gust: 22.0mph /  35.4km/h - -
Wind- - ESE
Pressure: 29.70 in /  1005.6 hPa 29.54 in /  1000.2 hPa -
Precipitation: 0.00 in /  0 mm    
Historical Graphs
 
 
Tabular Data for February 1, 2017
Time Temperature Dew Point Pressure Wind Wind Speed Wind Gust Humidity Rainfall Rate (Hourly) solar Conditions
00:00 75.9 °F /  24.4 °C 38.7 °F /  3.7 °C 29.70in /  1005.6hPa ESE 2.0mph /  3.2km/h 2.0mph /  3.2km/h 26% 0.00in /  0mm 0.0 W/m2
00:07 75.7 °F /  24.3 °C 38.5 °F /  3.6 °C 29.70in /  1005.6hPa SE 0.9mph /  1.4km/h 3.0mph /  4.8km/h 26% 0.00in /  0mm 0.0 W/m2
00:13 75.6 °F /  24.2 °C 38.3 °F /  3.5 °C 29.70in /  1005.6hPa Calm   1.0mph /  1.6km/h 26% 0.00in /  0mm 0.0 W/m2
00:19 75.2 °F /  24 °C 38.8 °F /  3.8 °C 29.70in /  1005.6hPa ESE 0.9mph /  1.4km/h 1.0mph /  1.6km/h 27% 0.00in /  0mm 0.0 W/m2
00:25 74.8 °F /  23.8 °C 37.6 °F /  3.1 °C 29.70in /  1005.6hPa Calm   3.0mph /  4.8km/h 26% 0.00in /  0mm 0.0 W/m2
00:31 74.7 °F /  23.7 °C 36.5 °F /  2.5 °C 29.70in /  1005.6hPa SE 2.0mph /  3.2km/h 5.0mph /  8km/h 25% 0.00in /  0mm 0.0 W/m2
00:37 75.0 °F /  23.9 °C 36.9 °F /  2.7 °C 29.69in /  1005.3hPa SSE 2.0mph /  3.2km/h 7.0mph /  11.3km/h 25% 0.00in /  0mm 0.0 W/m2
00:43 75.2 °F /  24 °C 36.0 °F /  2.2 °C 29.69in /  1005.3hPa ESE 0.9mph /  1.4km/h 6.0mph /  9.7km/h 24% 0.00in /  0mm 0.0 W/m2
00:50 75.4 °F /  24.1 °C 36.1 °F /  2.3 °C 29.69in /  1005.3hPa SE 0.9mph /  1.4km/h 4.0mph /  6.4km/h 24% 0.00in /  0mm 0.0 W/m2
00:56 75.4 °F /  24.1 °C 36.1 °F /  2.3 °C 29.69in /  1005.3hPa ESE 2.0mph /  3.2km/h 4.0mph /  6.4km/h 24% 0.00in /  0mm 0.0 W/m2
01:02 75.4 °F /  24.1 °C 36.1 °F /  2.3 °C 29.69in /  1005.3hPa SE 2.0mph /  3.2km/h 4.0mph /  6.4km/h 24% 0.00in /  0mm 0.0 W/m2
01:08 75.4 °F /  24.1 °C 35.1 °F /  1.7 °C 29.68in /  1005hPa ESE 0.9mph /  1.4km/h 4.0mph /  6.4km/h 23% 0.00in /  0mm 0.0 W/m2
01:14 75.4 °F /  24.1 °C 35.1 °F /  1.7 °C 29.68in /  1005hPa Calm   7.0mph /  11.3km/h 23% 0.00in /  0mm 0.0 W/m2
01:20 75.2 °F /  24 °C 34.9 °F /  1.6 °C 29.68in /  1005hPa SE 4.0mph /  6.4km/h 4.0mph /  6.4km/h 23% 0.00in /  0mm 0.0 W/m2
01:26 75.0 °F /  23.9 °C 34.7 °F /  1.5 °C 29.68in /  1005hPa Calm   6.0mph /  9.7km/h 23% 0.00in /  0mm 0.0 W/m2
01:33 75.0 °F /  23.9 °C 34.7 °F /  1.5 °C 29.68in /  1005hPa SE 2.0mph /  3.2km/h 5.0mph /  8km/h 23% 0.00in /  0mm 0.0 W/m2
01:39 75.2 °F /  24 °C 33.8 °F /  1 °C 29.68in /  1005hPa ESE 2.9mph /  4.7km/h 6.0mph /  9.7km/h 22% 0.00in /  0mm 0.0 W/m2
01:45 75.4 °F /  24.1 °C 34.0 °F /  1.1 °C 29.68in /  1005hPa East 0.9mph /  1.4km/h 6.0mph /  9.7km/h 22% 0.00in /  0mm 0.0 W/m2
01:51 75.6 °F /  24.2 °C 34.0 °F /  1.1 °C 29.68in /  1005hPa SE 2.0mph /  3.2km/h 10.0mph /  16.1km/h 22% 0.00in /  0mm 0.0 W/m2
01:57 75.6 °F /  24.2 °C 34.0 °F /  1.1 °C 29.68in /  1005hPa ESE 4.9mph /  7.9km/h 7.0mph /  11.3km/h 22% 0.00in /  0mm 0.0 W/m2
02:03 75.7 °F /  24.3 °C 34.2 °F /  1.2 °C 29.68in /  1005hPa SE 2.0mph /  3.2km/h 9.0mph /  14.5km/h 22% 0.00in /  0mm 0.0 W/m2
02:09 75.7 °F /  24.3 °C 34.2 °F /  1.2 °C 29.67in /  1004.6hPa SE 4.9mph /  7.9km/h 9.0mph /  14.5km/h 22% 0.00in /  0mm 0.0 W/m2
02:15 75.7 °F /  24.3 °C 35.2 °F /  1.8 °C 29.67in /  1004.6hPa SE 0.9mph /  1.4km/h 7.0mph /  11.3km/h 23% 0.00in /  0mm 0.0 W/m2
02:22 75.7 °F /  24.3 °C 36.3 °F /  2.4 °C 29.67in /  1004.6hPa SSE 0.9mph /  1.4km/h 6.0mph /  9.7km/h 24% 0.00in /  0mm 0.0 W/m2
02:28 75.6 °F /  24.2 °C 36.3 °F /  2.4 °C 29.67in /  1004.6hPa ESE 2.9mph /  4.7km/h 5.0mph /  8km/h 24% 0.00in /  0mm 0.0 W/m2
02:34 75.6 °F /  24.2 °C 38.3 °F /  3.5 °C 29.67in /  1004.6hPa SSE 2.9mph /  4.7km/h 7.0mph /  11.3km/h 26% 0.00in /  0mm 0.0 W/m2
02:40 75.4 °F /  24.1 °C 37.0 °F /  2.8 °C 29.67in /  1004.6hPa Calm   4.0mph /  6.4km/h 25% 0.00in /  0mm 0.0 W/m2
02:46 75.0 °F /  23.9 °C 37.8 °F /  3.2 °C 29.67in /  1004.6hPa SSE 6.0mph /  9.7km/h 9.0mph /  14.5km/h 26% 0.00in /  0mm 0.0 W/m2
02:52 74.5 °F /  23.6 °C 38.3 °F /  3.5 °C 29.67in /  1004.6hPa SE 2.9mph /  4.7km/h 7.0mph /  11.3km/h 27% 0.00in /  0mm 0.0 W/m2
02:58 73.9 °F /  23.3 °C 37.8 °F /  3.2 °C 29.67in /  1004.6hPa ESE 0.9mph /  1.4km/h 6.0mph /  9.7km/h 27% 0.00in /  0mm 0.0 W/m2
03:04 73.6 °F /  23.1 °C 38.5 °F /  3.6 °C 29.67in /  1004.6hPa ESE 2.9mph /  4.7km/h 8.0mph /  12.9km/h 28% 0.00in /  0mm 0.0 W/m2
03:11 73.6 °F /  23.1 °C 39.4 °F /  4.1 °C 29.67in /  1004.6hPa SSE 2.9mph /  4.7km/h 6.0mph /  9.7km/h 29% 0.00in /  0mm 0.0 W/m2
03:17 73.6 °F /  23.1 °C 40.3 °F /  4.6 °C 29.67in /  1004.6hPa ESE 2.9mph /  4.7km/h 4.0mph /  6.4km/h 30% 0.00in /  0mm 0.0 W/m2
03:23 73.6 °F /  23.1 °C 42.6 °F /  5.9 °C 29.67in /  1004.6hPa SSE 0.9mph /  1.4km/h 6.0mph /  9.7km/h 33% 0.00in /  0mm 0.0 W/m2
03:29 73.4 °F /  23 °C 44.8 °F /  7.1 °C 29.66in /  1004.3hPa SE 4.0mph /  6.4km/h 5.0mph /  8km/h 36% 0.00in /  0mm 0.0 W/m2
03:35 73.0 °F /  22.8 °C 45.9 °F /  7.7 °C 29.66in /  1004.3hPa ESE 8.1mph /  13km/h 9.0mph /  14.5km/h 38% 0.00in /  0mm 0.0 W/m2
03:41 72.9 °F /  22.7 °C 47.1 °F /  8.4 °C 29.66in /  1004.3hPa NNE 2.0mph /  3.2km/h 11.0mph /  17.7km/h 40% 0.00in /  0mm 0.0 W/m2
03:47 72.9 °F /  22.7 °C 47.1 °F /  8.4 °C 29.66in /  1004.3hPa Calm   4.0mph /  6.4km/h 40% 0.00in /  0mm 0.0 W/m2
03:53 72.7 °F /  22.6 °C 46.9 °F /  8.3 °C 29.66in /  1004.3hPa ESE 2.0mph /  3.2km/h 2.0mph /  3.2km/h 40% 0.00in /  0mm 0.0 W/m2
04:00 72.3 °F /  22.4 °C 46.0 °F /  7.8 °C 29.66in /  1004.3hPa Calm   3.0mph /  4.8km/h 39% 0.00in /  0mm 0.0 W/m2
04:06 72.0 °F /  22.2 °C 45.7 °F /  7.6 °C 29.66in /  1004.3hPa NNE 2.0mph /  3.2km/h 2.0mph /  3.2km/h 39% 0.00in /  0mm 0.0 W/m2
04:12 71.4 °F /  21.9 °C 45.1 °F /  7.3 °C 29.66in /  1004.3hPa NNE 0.9mph /  1.4km/h 3.0mph /  4.8km/h 39% 0.00in /  0mm 0.0 W/m2
04:18 71.1 °F /  21.7 °C 44.8 °F /  7.1 °C 29.66in /  1004.3hPa Calm   3.0mph /  4.8km/h 39% 0.00in /  0mm 0.0 W/m2
04:24 70.5 °F /  21.4 °C 44.4 °F /  6.9 °C 29.66in /  1004.3hPa Calm   3.0mph /  4.8km/h 39% 0.00in /  0mm 0.0 W/m2
04:30 70.2 °F /  21.2 °C 44.8 °F /  7.1 °C 29.66in /  1004.3hPa Calm     40% 0.00in /  0mm 0.0 W/m2
04:36 69.6 °F /  20.9 °C 44.2 °F /  6.8 °C 29.66in /  1004.3hPa ESE 2.0mph /  3.2km/h 2.0mph /  3.2km/h 40% 0.00in /  0mm 0.0 W/m2
04:42 69.3 °F /  20.7 °C 45.1 °F /  7.3 °C 29.66in /  1004.3hPa Calm   1.0mph /  1.6km/h 42% 0.00in /  0mm 0.0 W/m2
04:49 69.1 °F /  20.6 °C 46.2 °F /  7.9 °C 29.66in /  1004.3hPa Calm   2.0mph /  3.2km/h 44% 0.00in /  0mm 0.0 W/m2
04:55 68.7 °F /  20.4 °C 46.6 °F /  8.1 °C 29.66in /  1004.3hPa Calm   1.0mph /  1.6km/h 45% 0.00in /  0mm 0.0 W/m2
05:01 68.5 °F /  20.3 °C 46.9 °F /  8.3 °C 29.66in /  1004.3hPa Calm   2.0mph /  3.2km/h 46% 0.00in /  0mm 0.0 W/m2
05:07 68.4 °F /  20.2 °C 47.3 °F /  8.5 °C 29.66in /  1004.3hPa Calm   1.0mph /  1.6km/h 47% 0.00in /  0mm 0.0 W/m2
05:13 68.4 °F /  20.2 °C 47.8 °F /  8.8 °C 29.66in /  1004.3hPa ESE 4.9mph /  7.9km/h 5.0mph /  8km/h 48% 0.00in /  0mm 0.0 W/m2
05:19 68.2 °F /  20.1 °C 48.4 °F /  9.1 °C 29.66in /  1004.3hPa ENE 0.9mph /  1.4km/h 4.0mph /  6.4km/h 49% 0.00in /  0mm 0.0 W/m2
05:25 68.2 °F /  20.1 °C 49.3 °F /  9.6 °C 29.66in /  1004.3hPa Calm   6.0mph /  9.7km/h 51% 0.00in /  0mm 0.0 W/m2
05:31 68.0 °F /  20 °C 50.2 °F /  10.1 °C 29.66in /  1004.3hPa Calm   5.0mph /  8km/h 53% 0.00in /  0mm 0.0 W/m2
05:38 68.0 °F /  20 °C 51.3 °F /  10.7 °C 29.66in /  1004.3hPa East 0.9mph /  1.4km/h 4.0mph /  6.4km/h 55% 0.00in /  0mm 0.0 W/m2
05:44 68.2 °F /  20.1 °C 51.8 °F /  11 °C 29.66in /  1004.3hPa Calm   5.0mph /  8km/h 56% 0.00in /  0mm 0.0 W/m2
05:50 68.4 °F /  20.2 °C 52.5 °F /  11.4 °C 29.65in /  1003.9hPa ENE 2.0mph /  3.2km/h 3.0mph /  4.8km/h 57% 0.00in /  0mm 0.0 W/m2
05:56 68.5 °F /  20.3 °C 52.7 °F /  11.5 °C 29.65in /  1003.9hPa Calm   4.0mph /  6.4km/h 57% 0.00in /  0mm 0.0 W/m2
06:02 68.5 °F /  20.3 °C 52.7 °F /  11.5 °C 29.65in /  1003.9hPa Calm   2.0mph /  3.2km/h 57% 0.00in /  0mm 0.0 W/m2
06:08 68.4 °F /  20.2 °C 53.1 °F /  11.7 °C 29.66in /  1004.3hPa Calm   2.0mph /  3.2km/h 58% 0.00in /  0mm 0.0 W/m2
06:14 68.2 °F /  20.1 °C 52.9 °F /  11.6 °C 29.65in /  1003.9hPa Calm   2.0mph /  3.2km/h 58% 0.00in /  0mm 0.0 W/m2
06:20 68.2 °F /  20.1 °C 53.2 °F /  11.8 °C 29.65in /  1003.9hPa Calm   3.0mph /  4.8km/h 59% 0.00in /  0mm 0.0 W/m2
06:26 67.8 °F /  19.9 °C 53.4 °F /  11.9 °C 29.66in /  1004.3hPa Calm   1.0mph /  1.6km/h 60% 0.00in /  0mm 0.0 W/m2
06:33 67.8 °F /  19.9 °C 54.0 °F /  12.2 °C 29.66in /  1004.3hPa SE 0.9mph /  1.4km/h 2.0mph /  3.2km/h 61% 0.00in /  0mm 0.0 W/m2
06:39 67.6 °F /  19.8 °C 53.8 °F /  12.1 °C 29.66in /  1004.3hPa Calm   3.0mph /  4.8km/h 61% 0.00in /  0mm 9.0 W/m2
06:45 67.6 °F /  19.8 °C 54.1 °F /  12.3 °C 29.66in /  1004.3hPa Calm   1.0mph /  1.6km/h 62% 0.00in /  0mm 16.0 W/m2
06:51 67.6 °F /  19.8 °C 54.7 °F /  12.6 °C 29.66in /  1004.3hPa ENE 2.9mph /  4.7km/h 3.0mph /  4.8km/h 63% 0.00in /  0mm 19.0 W/m2
06:57 67.6 °F /  19.8 °C 55.0 °F /  12.8 °C 29.67in /  1004.6hPa Calm   1.0mph /  1.6km/h 64% 0.00in /  0mm 25.0 W/m2
07:03 67.6 °F /  19.8 °C 55.0 °F /  12.8 °C 29.66in /  1004.3hPa Calm     64% 0.00in /  0mm 28.0 W/m2
07:10 67.6 °F /  19.8 °C 55.0 °F /  12.8 °C 29.67in /  1004.6hPa Calm   2.0mph /  3.2km/h 64% 0.00in /  0mm 30.0 W/m2
07:16 67.6 °F /  19.8 °C 54.1 °F /  12.3 °C 29.67in /  1004.6hPa Calm   1.0mph /  1.6km/h 62% 0.00in /  0mm 32.0 W/m2
07:22 67.6 °F /  19.8 °C 55.0 °F /  12.8 °C 29.66in /  1004.3hPa Calm   1.0mph /  1.6km/h 64% 0.00in /  0mm 35.0 W/m2
07:28 67.8 °F /  19.9 °C 56.1 °F /  13.4 °C 29.66in /  1004.3hPa Calm   6.0mph /  9.7km/h 66% 0.00in /  0mm 40.0 W/m2
07:34 68.2 °F /  20.1 °C 55.9 °F /  13.3 °C 29.66in /  1004.3hPa Calm   3.0mph /  4.8km/h 65% 0.00in /  0mm 44.0 W/m2
07:40 68.5 °F /  20.3 °C 56.3 °F /  13.5 °C 29.67in /  1004.6hPa Calm   4.0mph /  6.4km/h 65% 0.00in /  0mm 47.0 W/m2
07:46 68.9 °F /  20.5 °C 56.3 °F /  13.5 °C 29.66in /  1004.3hPa Calm   6.0mph /  9.7km/h 64% 0.00in /  0mm 109.0 W/m2
07:53 69.4 °F /  20.8 °C 56.7 °F /  13.7 °C 29.66in /  1004.3hPa ESE 0.9mph /  1.4km/h 7.0mph /  11.3km/h 64% 0.00in /  0mm 216.0 W/m2
07:59 70.0 °F /  21.1 °C 56.8 °F /  13.8 °C 29.66in /  1004.3hPa SE 4.9mph /  7.9km/h 8.0mph /  12.9km/h 63% 0.00in /  0mm 216.0 W/m2
08:05 70.3 °F /  21.3 °C 57.2 °F /  14 °C 29.66in /  1004.3hPa NNE 4.0mph /  6.4km/h 10.0mph /  16.1km/h 63% 0.00in /  0mm 338.0 W/m2
08:11 70.7 °F /  21.5 °C 57.6 °F /  14.2 °C 29.65in /  1003.9hPa North 0.9mph /  1.4km/h 7.0mph /  11.3km/h 63% 0.00in /  0mm 385.0 W/m2
08:17 71.1 °F /  21.7 °C 56.8 °F /  13.8 °C 29.65in /  1003.9hPa NE 6.0mph /  9.7km/h 9.0mph /  14.5km/h 61% 0.00in /  0mm 406.0 W/m2
08:23 71.8 °F /  22.1 °C 57.6 °F /  14.2 °C 29.65in /  1003.9hPa ENE 6.0mph /  9.7km/h 8.0mph /  12.9km/h 61% 0.00in /  0mm 364.0 W/m2
08:29 72.3 °F /  22.4 °C 57.2 °F /  14 °C 29.65in /  1003.9hPa NNE 0.9mph /  1.4km/h 7.0mph /  11.3km/h 59% 0.00in /  0mm 408.0 W/m2
08:36 73.0 °F /  22.8 °C 56.5 °F /  13.6 °C 29.65in /  1003.9hPa ESE 2.0mph /  3.2km/h 6.0mph /  9.7km/h 56% 0.00in /  0mm 441.0 W/m2
08:41 73.9 °F /  23.3 °C 56.8 °F /  13.8 °C 29.65in /  1003.9hPa NE 2.9mph /  4.7km/h 10.0mph /  16.1km/h 55% 0.00in /  0mm 504.0 W/m2
08:48 75.0 °F /  23.9 °C 56.1 °F /  13.4 °C 29.65in /  1003.9hPa East 2.9mph /  4.7km/h 7.0mph /  11.3km/h 52% 0.00in /  0mm 529.0 W/m2
08:54 76.3 °F /  24.6 °C 56.3 °F /  13.5 °C 29.65in /  1003.9hPa NE 4.9mph /  7.9km/h 8.0mph /  12.9km/h 50% 0.00in /  0mm 555.0 W/m2
09:00 77.2 °F /  25.1 °C 55.4 °F /  13 °C 29.65in /  1003.9hPa Calm   5.0mph /  8km/h 47% 0.00in /  0mm 580.0 W/m2
09:06 77.7 °F /  25.4 °C 54.1 °F /  12.3 °C 29.65in /  1003.9hPa NNE 2.0mph /  3.2km/h 5.0mph /  8km/h 44% 0.00in /  0mm 605.0 W/m2
09:12 78.3 °F /  25.7 °C 51.3 °F /  10.7 °C 29.65in /  1003.9hPa East 4.9mph /  7.9km/h 10.0mph /  16.1km/h 39% 0.00in /  0mm 631.0 W/m2
09:18 78.6 °F /  25.9 °C 50.9 °F /  10.5 °C 29.65in /  1003.9hPa ESE 6.0mph /  9.7km/h 9.0mph /  14.5km/h 38% 0.00in /  0mm 654.0 W/m2
09:24 79.0 °F /  26.1 °C 50.5 °F /  10.3 °C 29.65in /  1003.9hPa NE 4.0mph /  6.4km/h 12.0mph /  19.3km/h 37% 0.00in /  0mm 684.0 W/m2
09:30 79.3 °F /  26.3 °C 49.3 °F /  9.6 °C 29.66in /  1004.3hPa SE 2.0mph /  3.2km/h 11.0mph /  17.7km/h 35% 0.00in /  0mm 710.0 W/m2
09:36 79.7 °F /  26.5 °C 49.6 °F /  9.8 °C 29.65in /  1003.9hPa South 4.0mph /  6.4km/h 10.0mph /  16.1km/h 35% 0.00in /  0mm 728.0 W/m2
09:43 80.2 °F /  26.8 °C 50.2 °F /  10.1 °C 29.65in /  1003.9hPa ESE 0.9mph /  1.4km/h 8.0mph /  12.9km/h 35% 0.00in /  0mm 664.0 W/m2
09:49 80.4 °F /  26.9 °C 48.7 °F /  9.3 °C 29.65in /  1003.9hPa ESE 4.0mph /  6.4km/h 13.0mph /  20.9km/h 33% 0.00in /  0mm 647.0 W/m2
09:55 80.2 °F /  26.8 °C 47.7 °F /  8.7 °C 29.66in /  1004.3hPa ESE 4.0mph /  6.4km/h 13.0mph /  20.9km/h 32% 0.00in /  0mm 631.0 W/m2
10:01 80.1 °F /  26.7 °C 49.1 °F /  9.5 °C 29.66in /  1004.3hPa East 6.0mph /  9.7km/h 11.0mph /  17.7km/h 34% 0.00in /  0mm 619.0 W/m2
10:07 80.1 °F /  26.7 °C 49.1 °F /  9.5 °C 29.66in /  1004.3hPa ESE 4.0mph /  6.4km/h 12.0mph /  19.3km/h 34% 0.00in /  0mm 745.0 W/m2
10:13 80.8 °F /  27.1 °C 51.3 °F /  10.7 °C 29.66in /  1004.3hPa South 4.0mph /  6.4km/h 7.0mph /  11.3km/h 36% 0.00in /  0mm 788.0 W/m2
10:19 81.3 °F /  27.4 °C 50.2 °F /  10.1 °C 29.66in /  1004.3hPa South 13.0mph /  20.9km/h 13.0mph /  20.9km/h 34% 0.00in /  0mm 819.0 W/m2
10:25 81.9 °F /  27.7 °C 50.7 °F /  10.4 °C 29.66in /  1004.3hPa ESE 6.9mph /  11.1km/h 9.0mph /  14.5km/h 34% 0.00in /  0mm 835.0 W/m2
10:32 82.0 °F /  27.8 °C 50.2 °F /  10.1 °C 29.65in /  1003.9hPa SE 12.1mph /  19.5km/h 13.0mph /  20.9km/h 33% 0.00in /  0mm 847.0 W/m2
10:38 82.0 °F /  27.8 °C 50.2 °F /  10.1 °C 29.65in /  1003.9hPa SE 4.9mph /  7.9km/h 13.0mph /  20.9km/h 33% 0.00in /  0mm 863.0 W/m2
10:44 82.2 °F /  27.9 °C 51.1 °F /  10.6 °C 29.65in /  1003.9hPa SE 4.9mph /  7.9km/h 12.0mph /  19.3km/h 34% 0.00in /  0mm 875.0 W/m2
10:50 82.8 °F /  28.2 °C 50.7 °F /  10.4 °C 29.65in /  1003.9hPa SSE 10.1mph /  16.3km/h 14.0mph /  22.5km/h 33% 0.00in /  0mm 891.0 W/m2
10:56 82.4 °F /  28 °C 50.4 °F /  10.2 °C 29.65in /  1003.9hPa SE 2.9mph /  4.7km/h 13.0mph /  20.9km/h 33% 0.00in /  0mm 905.0 W/m2
11:02 82.9 °F /  28.3 °C 51.6 °F /  10.9 °C 29.65in /  1003.9hPa ENE 2.9mph /  4.7km/h 13.0mph /  20.9km/h 34% 0.00in /  0mm 835.0 W/m2
11:08 83.1 °F /  28.4 °C 51.1 °F /  10.6 °C 29.65in /  1003.9hPa SE 6.0mph /  9.7km/h 10.0mph /  16.1km/h 33% 0.00in /  0mm 928.0 W/m2
11:14 83.5 °F /  28.6 °C 50.5 °F /  10.3 °C 29.65in /  1003.9hPa ENE 4.9mph /  7.9km/h 14.0mph /  22.5km/h 32% 0.00in /  0mm 946.0 W/m2
11:21 84.0 °F /  28.9 °C 51.8 °F /  11 °C 29.65in /  1003.9hPa ESE 4.9mph /  7.9km/h 17.0mph /  27.4km/h 33% 0.00in /  0mm 962.0 W/m2
11:27 84.2 °F /  29 °C 51.1 °F /  10.6 °C 29.65in /  1003.9hPa SSE 10.1mph /  16.3km/h 15.0mph /  24.1km/h 32% 0.00in /  0mm 970.0 W/m2
11:33 84.6 °F /  29.2 °C 51.4 °F /  10.8 °C 29.65in /  1003.9hPa East 8.1mph /  13km/h 12.0mph /  19.3km/h 32% 0.00in /  0mm 984.0 W/m2
11:39 84.6 °F /  29.2 °C 52.3 °F /  11.3 °C 29.65in /  1003.9hPa NE 6.0mph /  9.7km/h 12.0mph /  19.3km/h 33% 0.00in /  0mm 1009.0 W/m2
11:45 84.4 °F /  29.1 °C 51.3 °F /  10.7 °C 29.64in /  1003.6hPa SE 6.0mph /  9.7km/h 15.0mph /  24.1km/h 32% 0.00in /  0mm 1035.0 W/m2
11:51 84.7 °F /  29.3 °C 52.5 °F /  11.4 °C 29.64in /  1003.6hPa SE 4.9mph /  7.9km/h 13.0mph /  20.9km/h 33% 0.00in /  0mm 1055.0 W/m2
11:57 85.5 °F /  29.7 °C 51.4 °F /  10.8 °C 29.64in /  1003.6hPa East 4.9mph /  7.9km/h 21.0mph /  33.8km/h 31% 0.00in /  0mm 1063.0 W/m2
12:04 85.5 °F /  29.7 °C 52.2 °F /  11.2 °C 29.64in /  1003.6hPa ENE 4.9mph /  7.9km/h 13.0mph /  20.9km/h 32% 0.00in /  0mm 1130.0 W/m2
12:10 85.8 °F /  29.9 °C 51.6 °F /  10.9 °C 29.64in /  1003.6hPa ENE 8.1mph /  13km/h 14.0mph /  22.5km/h 31% 0.00in /  0mm 1088.0 W/m2
12:16 85.6 °F /  29.8 °C 51.6 °F /  10.9 °C 29.64in /  1003.6hPa SSE 13.0mph /  20.9km/h 13.0mph /  20.9km/h 31% 0.00in /  0mm 1132.0 W/m2
12:22 84.9 °F /  29.4 °C 51.8 °F /  11 °C 29.64in /  1003.6hPa SSE 15.0mph /  24.1km/h 18.0mph /  29km/h 32% 0.00in /  0mm 1146.0 W/m2
12:28 84.7 °F /  29.3 °C 53.2 °F /  11.8 °C 29.63in /  1003.3hPa ESE 6.0mph /  9.7km/h 12.0mph /  19.3km/h 34% 0.00in /  0mm 1114.0 W/m2
12:34 85.5 °F /  29.7 °C 53.1 °F /  11.7 °C 29.63in /  1003.3hPa ESE 2.0mph /  3.2km/h 14.0mph /  22.5km/h 33% 0.00in /  0mm 1155.0 W/m2
12:40 85.6 °F /  29.8 °C 53.2 °F /  11.8 °C 29.63in /  1003.3hPa East 14.1mph /  22.7km/h 19.0mph /  30.6km/h 33% 0.00in /  0mm 1072.0 W/m2
12:46 85.8 °F /  29.9 °C 53.4 °F /  11.9 °C 29.63in /  1003.3hPa ESE 11.0mph /  17.7km/h 11.0mph /  17.7km/h 33% 0.00in /  0mm 1139.0 W/m2
12:53 85.3 °F /  29.6 °C 52.9 °F /  11.6 °C 29.63in /  1003.3hPa SSE 6.0mph /  9.7km/h 11.0mph /  17.7km/h 33% 0.00in /  0mm 371.0 W/m2
12:59 84.6 °F /  29.2 °C 53.1 °F /  11.7 °C 29.63in /  1003.3hPa NE 2.0mph /  3.2km/h 8.0mph /  12.9km/h 34% 0.00in /  0mm 338.0 W/m2
13:05 84.7 °F /  29.3 °C 53.2 °F /  11.8 °C 29.62in /  1002.9hPa SE 8.9mph /  14.3km/h 14.0mph /  22.5km/h 34% 0.00in /  0mm 446.0 W/m2
13:11 84.4 °F /  29.1 °C 51.3 °F /  10.7 °C 29.62in /  1002.9hPa SSE 8.1mph /  13km/h 12.0mph /  19.3km/h 32% 0.00in /  0mm 427.0 W/m2
13:17 84.0 °F /  28.9 °C 50.2 °F /  10.1 °C 29.62in /  1002.9hPa ESE 6.0mph /  9.7km/h 7.0mph /  11.3km/h 31% 0.00in /  0mm 473.0 W/m2
13:23 84.7 °F /  29.3 °C 50.7 °F /  10.4 °C 29.62in /  1002.9hPa SSE 14.1mph /  22.7km/h 22.0mph /  35.4km/h 31% 0.00in /  0mm 1336.0 W/m2
13:29 85.3 °F /  29.6 °C 49.5 °F /  9.7 °C 29.62in /  1002.9hPa South 0.9mph /  1.4km/h 10.0mph /  16.1km/h 29% 0.00in /  0mm 336.0 W/m2
13:35 85.6 °F /  29.8 °C 53.2 °F /  11.8 °C 29.62in /  1002.9hPa SSE 8.1mph /  13km/h 14.0mph /  22.5km/h 33% 0.00in /  0mm 390.0 W/m2
13:42 85.5 °F /  29.7 °C 54.0 °F /  12.2 °C 29.62in /  1002.9hPa East 8.1mph /  13km/h 14.0mph /  22.5km/h 34% 0.00in /  0mm 364.0 W/m2
13:48 85.6 °F /  29.8 °C 53.2 °F /  11.8 °C 29.62in /  1002.9hPa SE 2.0mph /  3.2km/h 14.0mph /  22.5km/h 33% 0.00in /  0mm 1106.0 W/m2
13:54 86.2 °F /  30.1 °C 52.0 °F /  11.1 °C 29.61in /  1002.6hPa NE 4.9mph /  7.9km/h 15.0mph /  24.1km/h 31% 0.00in /  0mm 429.0 W/m2
14:00 85.8 °F /  29.9 °C 51.6 °F /  10.9 °C 29.61in /  1002.6hPa SSW 8.1mph /  13km/h 10.0mph /  16.1km/h 31% 0.00in /  0mm 197.0 W/m2
14:06 85.5 °F /  29.7 °C 51.4 °F /  10.8 °C 29.61in /  1002.6hPa South 4.9mph /  7.9km/h 14.0mph /  22.5km/h 31% 0.00in /  0mm 712.0 W/m2
14:12 86.0 °F /  30 °C 51.8 °F /  11 °C 29.60in /  1002.3hPa ESE 6.9mph /  11.1km/h 16.0mph /  25.7km/h 31% 0.00in /  0mm 777.0 W/m2
14:18 86.7 °F /  30.4 °C 52.5 °F /  11.4 °C 29.60in /  1002.3hPa SE 4.9mph /  7.9km/h 8.0mph /  12.9km/h 31% 0.00in /  0mm 1141.0 W/m2
14:25 87.4 °F /  30.8 °C 51.3 °F /  10.7 °C 29.60in /  1002.3hPa ESE 8.1mph /  13km/h 13.0mph /  20.9km/h 29% 0.00in /  0mm 1072.0 W/m2
14:31 87.8 °F /  31 °C 52.5 °F /  11.4 °C 29.60in /  1002.3hPa SSE 4.0mph /  6.4km/h 7.0mph /  11.3km/h 30% 0.00in /  0mm 499.0 W/m2
14:37 87.6 °F /  30.9 °C 53.2 °F /  11.8 °C 29.59in /  1001.9hPa ESE 2.9mph /  4.7km/h 8.0mph /  12.9km/h 31% 0.00in /  0mm 1044.0 W/m2
14:43 87.3 °F /  30.7 °C 51.1 °F /  10.6 °C 29.59in /  1001.9hPa East 4.0mph /  6.4km/h 12.0mph /  19.3km/h 29% 0.00in /  0mm 387.0 W/m2
14:49 87.1 °F /  30.6 °C 53.6 °F /  12 °C 29.59in /  1001.9hPa ESE 6.0mph /  9.7km/h 7.0mph /  11.3km/h 32% 0.00in /  0mm 1120.0 W/m2
14:55 87.3 °F /  30.7 °C 52.9 °F /  11.6 °C 29.59in /  1001.9hPa NE 4.0mph /  6.4km/h 12.0mph /  19.3km/h 31% 0.00in /  0mm 142.0 W/m2
15:01 86.5 °F /  30.3 °C 53.2 °F /  11.8 °C 29.59in /  1001.9hPa SSE 4.0mph /  6.4km/h 9.0mph /  14.5km/h 32% 0.00in /  0mm 691.0 W/m2
15:07 87.3 °F /  30.7 °C 53.8 °F /  12.1 °C 29.58in /  1001.6hPa SSW 4.0mph /  6.4km/h 11.0mph /  17.7km/h 32% 0.00in /  0mm 1079.0 W/m2
15:14 87.4 °F /  30.8 °C 54.0 °F /  12.2 °C 29.58in /  1001.6hPa ESE 4.9mph /  7.9km/h 8.0mph /  12.9km/h 32% 0.00in /  0mm 255.0 W/m2
15:20 86.7 °F /  30.4 °C 53.4 °F /  11.9 °C 29.58in /  1001.6hPa SE 4.0mph /  6.4km/h 11.0mph /  17.7km/h 32% 0.00in /  0mm 211.0 W/m2
15:26 86.5 °F /  30.3 °C 54.0 °F /  12.2 °C 29.58in /  1001.6hPa SE 2.9mph /  4.7km/h 11.0mph /  17.7km/h 33% 0.00in /  0mm 185.0 W/m2
15:32 86.0 °F /  30 °C 53.6 °F /  12 °C 29.57in /  1001.2hPa SE 4.0mph /  6.4km/h 7.0mph /  11.3km/h 33% 0.00in /  0mm 257.0 W/m2
15:38 86.4 °F /  30.2 °C 53.8 °F /  12.1 °C 29.57in /  1001.2hPa SSE 4.0mph /  6.4km/h 12.0mph /  19.3km/h 33% 0.00in /  0mm 935.0 W/m2
15:44 87.1 °F /  30.6 °C 53.6 °F /  12 °C 29.57in /  1001.2hPa South 0.9mph /  1.4km/h 7.0mph /  11.3km/h 32% 0.00in /  0mm 944.0 W/m2
15:50 87.8 °F /  31 °C 54.3 °F /  12.4 °C 29.57in /  1001.2hPa SE 4.9mph /  7.9km/h 8.0mph /  12.9km/h 32% 0.00in /  0mm 990.0 W/m2
15:56 88.9 °F /  31.6 °C 54.3 °F /  12.4 °C 29.57in /  1001.2hPa ENE 2.0mph /  3.2km/h 7.0mph /  11.3km/h 31% 0.00in /  0mm 928.0 W/m2
16:03 88.9 °F /  31.6 °C 54.3 °F /  12.4 °C 29.57in /  1001.2hPa South 6.0mph /  9.7km/h 8.0mph /  12.9km/h 31% 0.00in /  0mm 940.0 W/m2
16:09 89.1 °F /  31.7 °C 54.5 °F /  12.5 °C 29.57in /  1001.2hPa SE 2.0mph /  3.2km/h 8.0mph /  12.9km/h 31% 0.00in /  0mm 311.0 W/m2
16:15 88.9 °F /  31.6 °C 55.2 °F /  12.9 °C 29.57in /  1001.2hPa SE 0.9mph /  1.4km/h 5.0mph /  8km/h 32% 0.00in /  0mm 916.0 W/m2
16:21 88.9 °F /  31.6 °C 54.3 °F /  12.4 °C 29.56in /  1000.9hPa SE 6.9mph /  11.1km/h 10.0mph /  16.1km/h 31% 0.00in /  0mm 257.0 W/m2
16:27 88.9 °F /  31.6 °C 54.3 °F /  12.4 °C 29.56in /  1000.9hPa SE 6.9mph /  11.1km/h 10.0mph /  16.1km/h 31% 0.00in /  0mm 803.0 W/m2
16:33 89.1 °F /  31.7 °C 53.6 °F /  12 °C 29.56in /  1000.9hPa South 6.0mph /  9.7km/h 13.0mph /  20.9km/h 30% 0.00in /  0mm 429.0 W/m2
16:39 88.5 °F /  31.4 °C 53.1 °F /  11.7 °C 29.56in /  1000.9hPa SSE 6.9mph /  11.1km/h 9.0mph /  14.5km/h 30% 0.00in /  0mm 807.0 W/m2
16:45 89.1 °F /  31.7 °C 53.6 °F /  12 °C 29.55in /  1000.6hPa SE 2.0mph /  3.2km/h 7.0mph /  11.3km/h 30% 0.00in /  0mm 812.0 W/m2
16:52 88.9 °F /  31.6 °C 53.4 °F /  11.9 °C 29.55in /  1000.6hPa SE 0.9mph /  1.4km/h 10.0mph /  16.1km/h 30% 0.00in /  0mm 823.0 W/m2
16:58 89.2 °F /  31.8 °C 54.7 °F /  12.6 °C 29.55in /  1000.6hPa ESE 0.9mph /  1.4km/h 8.0mph /  12.9km/h 31% 0.00in /  0mm 615.0 W/m2
17:04 89.6 °F /  32 °C 55.8 °F /  13.2 °C 29.55in /  1000.6hPa ESE 6.9mph /  11.1km/h 7.0mph /  11.3km/h 32% 0.00in /  0mm 522.0 W/m2
17:10 89.2 °F /  31.8 °C 56.3 °F /  13.5 °C 29.55in /  1000.6hPa ESE 8.1mph /  13km/h 14.0mph /  22.5km/h 33% 0.00in /  0mm 438.0 W/m2
17:16 88.3 °F /  31.3 °C 56.5 °F /  13.6 °C 29.54in /  1000.2hPa East 4.0mph /  6.4km/h 11.0mph /  17.7km/h 34% 0.00in /  0mm 422.0 W/m2
17:22 88.0 °F /  31.1 °C 56.1 °F /  13.4 °C 29.54in /  1000.2hPa SSE 8.9mph /  14.3km/h 10.0mph /  16.1km/h 34% 0.00in /  0mm 380.0 W/m2
17:28 87.6 °F /  30.9 °C 56.7 °F /  13.7 °C 29.55in /  1000.6hPa SE 4.0mph /  6.4km/h 7.0mph /  11.3km/h 35% 0.00in /  0mm 188.0 W/m2
17:35 86.9 °F /  30.5 °C 55.9 °F /  13.3 °C 29.55in /  1000.6hPa ESE 6.0mph /  9.7km/h 9.0mph /  14.5km/h 35% 0.00in /  0mm 183.0 W/m2
17:41 86.2 °F /  30.1 °C 56.1 °F /  13.4 °C 29.55in /  1000.6hPa South 4.0mph /  6.4km/h 9.0mph /  14.5km/h 36% 0.00in /  0mm 185.0 W/m2
17:46 85.6 °F /  29.8 °C 55.6 °F /  13.1 °C 29.55in /  1000.6hPa SE 2.9mph /  4.7km/h 7.0mph /  11.3km/h 36% 0.00in /  0mm 188.0 W/m2
17:53 85.3 °F /  29.6 °C 56.1 °F /  13.4 °C 29.55in /  1000.6hPa SE 4.0mph /  6.4km/h 5.0mph /  8km/h 37% 0.00in /  0mm 176.0 W/m2
17:59 84.9 °F /  29.4 °C 55.0 °F /  12.8 °C 29.55in /  1000.6hPa SSE 2.0mph /  3.2km/h 10.0mph /  16.1km/h 36% 0.00in /  0mm 165.0 W/m2
18:05 84.9 °F /  29.4 °C 55.8 °F /  13.2 °C 29.55in /  1000.6hPa ESE 0.9mph /  1.4km/h 7.0mph /  11.3km/h 37% 0.00in /  0mm 162.0 W/m2
18:11 84.9 °F /  29.4 °C 55.0 °F /  12.8 °C 29.56in /  1000.9hPa WSW 4.0mph /  6.4km/h 10.0mph /  16.1km/h 36% 0.00in /  0mm 148.0 W/m2
18:17 84.7 °F /  29.3 °C 55.6 °F /  13.1 °C 29.56in /  1000.9hPa SSE 6.0mph /  9.7km/h 7.0mph /  11.3km/h 37% 0.00in /  0mm 125.0 W/m2
18:24 84.6 °F /  29.2 °C 55.4 °F /  13 °C 29.56in /  1000.9hPa SSE 6.9mph /  11.1km/h 7.0mph /  11.3km/h 37% 0.00in /  0mm 98.0 W/m2
18:30 84.4 °F /  29.1 °C 55.9 °F /  13.3 °C 29.56in /  1000.9hPa SE 2.0mph /  3.2km/h 9.0mph /  14.5km/h 38% 0.00in /  0mm 83.0 W/m2
18:36 84.0 °F /  28.9 °C 55.8 °F /  13.2 °C 29.56in /  1000.9hPa SSE 2.9mph /  4.7km/h 6.0mph /  9.7km/h 38% 0.00in /  0mm 69.0 W/m2
18:42 83.7 °F /  28.7 °C 54.0 °F /  12.2 °C 29.57in /  1001.2hPa SSW 0.9mph /  1.4km/h 3.0mph /  4.8km/h 36% 0.00in /  0mm 67.0 W/m2
18:48 83.1 °F /  28.4 °C 51.8 °F /  11 °C 29.57in /  1001.2hPa SW 6.9mph /  11.1km/h 7.0mph /  11.3km/h 34% 0.00in /  0mm 62.0 W/m2
18:54 82.6 °F /  28.1 °C 52.9 °F /  11.6 °C 29.57in /  1001.2hPa SSE 0.9mph /  1.4km/h 7.0mph /  11.3km/h 36% 0.00in /  0mm 60.0 W/m2
19:00 82.4 °F /  28 °C 53.6 °F /  12 °C 29.57in /  1001.2hPa SW 2.0mph /  3.2km/h 5.0mph /  8km/h 37% 0.00in /  0mm 56.0 W/m2
19:06 82.4 °F /  28 °C 54.3 °F /  12.4 °C 29.58in /  1001.6hPa Calm   5.0mph /  8km/h 38% 0.00in /  0mm 47.0 W/m2
19:12 82.6 °F /  28.1 °C 55.8 °F /  13.2 °C 29.59in /  1001.9hPa ESE 2.9mph /  4.7km/h 8.0mph /  12.9km/h 40% 0.00in /  0mm 39.0 W/m2
19:18 82.4 °F /  28 °C 56.3 °F /  13.5 °C 29.59in /  1001.9hPa East 6.0mph /  9.7km/h 6.0mph /  9.7km/h 41% 0.00in /  0mm 25.0 W/m2
19:24 82.2 °F /  27.9 °C 56.1 °F /  13.4 °C 29.59in /  1001.9hPa SE 4.9mph /  7.9km/h 5.0mph /  8km/h 41% 0.00in /  0mm 16.0 W/m2
19:30 82.0 °F /  27.8 °C 55.9 °F /  13.3 °C 29.60in /  1002.3hPa ESE 4.0mph /  6.4km/h 6.0mph /  9.7km/h 41% 0.00in /  0mm 11.0 W/m2
19:36 81.9 °F /  27.7 °C 56.5 °F /  13.6 °C 29.60in /  1002.3hPa ESE 0.9mph /  1.4km/h 5.0mph /  8km/h 42% 0.00in /  0mm 5.0 W/m2
19:42 81.5 °F /  27.5 °C 56.1 °F /  13.4 °C 29.60in /  1002.3hPa East 2.0mph /  3.2km/h 5.0mph /  8km/h 42% 0.00in /  0mm 0.0 W/m2
19:48 81.3 °F /  27.4 °C 56.1 °F /  13.4 °C 29.61in /  1002.6hPa SE 2.0mph /  3.2km/h 7.0mph /  11.3km/h 42% 0.00in /  0mm 0.0 W/m2
19:55 81.1 °F /  27.3 °C 55.9 °F /  13.3 °C 29.60in /  1002.3hPa Calm   6.0mph /  9.7km/h 42% 0.00in /  0mm 0.0 W/m2
20:00 81.0 °F /  27.2 °C 55.8 °F /  13.2 °C 29.60in /  1002.3hPa SE 0.9mph /  1.4km/h 5.0mph /  8km/h 42% 0.00in /  0mm 0.0 W/m2
20:06 80.8 °F /  27.1 °C 55.6 °F /  13.1 °C 29.61in /  1002.6hPa South 2.9mph /  4.7km/h 6.0mph /  9.7km/h 42% 0.00in /  0mm 0.0 W/m2
20:08 80.8 °F /  27.1 °C 55.6 °F /  13.1 °C 29.61in /  1002.6hPa SSE 4.0mph /  6.4km/h 8.0mph /  12.9km/h 42% 0.00in /  0mm 0.0 W/m2
20:15 80.6 °F /  27 °C 55.4 °F /  13 °C 29.61in /  1002.6hPa ENE 0.9mph /  1.4km/h 5.0mph /  8km/h 42% 0.00in /  0mm 0.0 W/m2
20:20 80.4 °F /  26.9 °C 55.2 °F /  12.9 °C 29.61in /  1002.6hPa SE 2.9mph /  4.7km/h 8.0mph /  12.9km/h 42% 0.00in /  0mm 0.0 W/m2
20:26 80.2 °F /  26.8 °C 55.8 °F /  13.2 °C 29.61in /  1002.6hPa ESE 2.0mph /  3.2km/h 7.0mph /  11.3km/h 43% 0.00in /  0mm 0.0 W/m2
20:33 79.9 °F /  26.6 °C 56.7 °F /  13.7 °C 29.61in /  1002.6hPa NE 2.9mph /  4.7km/h 9.0mph /  14.5km/h 45% 0.00in /  0mm 0.0 W/m2
20:38 79.0 °F /  26.1 °C 56.5 °F /  13.6 °C 29.62in /  1002.9hPa NE 2.0mph /  3.2km/h 11.0mph /  17.7km/h 46% 0.00in /  0mm 0.0 W/m2
20:44 77.7 °F /  25.4 °C 57.0 °F /  13.9 °C 29.62in /  1002.9hPa SE 6.9mph /  11.1km/h 12.0mph /  19.3km/h 49% 0.00in /  0mm 0.0 W/m2
20:51 76.6 °F /  24.8 °C 57.7 °F /  14.3 °C 29.63in /  1003.3hPa East 4.9mph /  7.9km/h 11.0mph /  17.7km/h 52% 0.00in /  0mm 0.0 W/m2
20:57 75.7 °F /  24.3 °C 59.0 °F /  15 °C 29.63in /  1003.3hPa NE 6.0mph /  9.7km/h 11.0mph /  17.7km/h 56% 0.00in /  0mm 0.0 W/m2
21:03 75.0 °F /  23.9 °C 59.2 °F /  15.1 °C 29.64in /  1003.6hPa ENE 2.9mph /  4.7km/h 9.0mph /  14.5km/h 58% 0.00in /  0mm 0.0 W/m2
21:09 74.7 °F /  23.7 °C 59.9 °F /  15.5 °C 29.63in /  1003.3hPa NE 0.9mph /  1.4km/h 9.0mph /  14.5km/h 60% 0.00in /  0mm 0.0 W/m2
21:15 74.5 °F /  23.6 °C 60.1 °F /  15.6 °C 29.63in /  1003.3hPa SE 4.0mph /  6.4km/h 9.0mph /  14.5km/h 61% 0.00in /  0mm 0.0 W/m2
21:21 74.1 °F /  23.4 °C 60.3 °F /  15.7 °C 29.63in /  1003.3hPa ESE 10.1mph /  16.3km/h 12.0mph /  19.3km/h 62% 0.00in /  0mm 0.0 W/m2
21:27 73.9 °F /  23.3 °C 60.1 °F /  15.6 °C 29.64in /  1003.6hPa NE 2.0mph /  3.2km/h 5.0mph /  8km/h 62% 0.00in /  0mm 0.0 W/m2
21:33 73.8 °F /  23.2 °C 60.4 °F /  15.8 °C 29.64in /  1003.6hPa Calm   6.0mph /  9.7km/h 63% 0.00in /  0mm 0.0 W/m2
21:39 73.8 °F /  23.2 °C 60.8 °F /  16 °C 29.64in /  1003.6hPa East 6.0mph /  9.7km/h 9.0mph /  14.5km/h 64% 0.00in /  0mm 0.0 W/m2
21:45 73.6 °F /  23.1 °C 60.6 °F /  15.9 °C 29.65in /  1003.9hPa NE 6.0mph /  9.7km/h 6.0mph /  9.7km/h 64% 0.00in /  0mm 0.0 W/m2
21:51 73.6 °F /  23.1 °C 60.6 °F /  15.9 °C 29.65in /  1003.9hPa NNE 6.9mph /  11.1km/h 7.0mph /  11.3km/h 64% 0.00in /  0mm 0.0 W/m2
21:57 73.4 °F /  23 °C 61.0 °F /  16.1 °C 29.65in /  1003.9hPa ENE 4.0mph /  6.4km/h 7.0mph /  11.3km/h 65% 0.00in /  0mm 0.0 W/m2
22:03 73.2 °F /  22.9 °C 60.8 °F /  16 °C 29.65in /  1003.9hPa East 2.0mph /  3.2km/h 4.0mph /  6.4km/h 65% 0.00in /  0mm 0.0 W/m2
22:09 73.2 °F /  22.9 °C 60.8 °F /  16 °C 29.65in /  1003.9hPa Calm   4.0mph /  6.4km/h 65% 0.00in /  0mm 0.0 W/m2
22:15 73.2 °F /  22.9 °C 61.2 °F /  16.2 °C 29.65in /  1003.9hPa Calm   2.0mph /  3.2km/h 66% 0.00in /  0mm 0.0 W/m2
22:21 73.2 °F /  22.9 °C 61.2 °F /  16.2 °C 29.66in /  1004.3hPa Calm   1.0mph /  1.6km/h 66% 0.00in /  0mm 0.0 W/m2
22:27 73.2 °F /  22.9 °C 61.2 °F /  16.2 °C 29.66in /  1004.3hPa North 2.9mph /  4.7km/h 3.0mph /  4.8km/h 66% 0.00in /  0mm 0.0 W/m2
22:33 73.2 °F /  22.9 °C 61.2 °F /  16.2 °C 29.67in /  1004.6hPa Calm   3.0mph /  4.8km/h 66% 0.00in /  0mm 0.0 W/m2
22:39 73.2 °F /  22.9 °C 61.2 °F /  16.2 °C 29.67in /  1004.6hPa NE 6.0mph /  9.7km/h 6.0mph /  9.7km/h 66% 0.00in /  0mm 0.0 W/m2
22:45 73.2 °F /  22.9 °C 61.2 °F /  16.2 °C 29.67in /  1004.6hPa NE 0.9mph /  1.4km/h 5.0mph /  8km/h 66% 0.00in /  0mm 0.0 W/m2
22:51 73.2 °F /  22.9 °C 61.2 °F /  16.2 °C 29.67in /  1004.6hPa NNE 2.9mph /  4.7km/h 5.0mph /  8km/h 66% 0.00in /  0mm 0.0 W/m2
22:57 73.2 °F /  22.9 °C 60.8 °F /  16 °C 29.68in /  1005hPa NNE 6.9mph /  11.1km/h 7.0mph /  11.3km/h 65% 0.00in /  0mm 0.0 W/m2
23:03 73.0 °F /  22.8 °C 59.7 °F /  15.4 °C 29.68in /  1005hPa NNW 6.9mph /  11.1km/h 8.0mph /  12.9km/h 63% 0.00in /  0mm 0.0 W/m2
23:09 72.9 °F /  22.7 °C 59.9 °F /  15.5 °C 29.67in /  1004.6hPa NNW 4.0mph /  6.4km/h 5.0mph /  8km/h 64% 0.00in /  0mm 0.0 W/m2
23:15 72.3 °F /  22.4 °C 59.9 °F /  15.5 °C 29.67in /  1004.6hPa NNW 2.9mph /  4.7km/h 6.0mph /  9.7km/h 65% 0.00in /  0mm 0.0 W/m2
23:21 71.8 °F /  22.1 °C 59.7 °F /  15.4 °C 29.68in /  1005hPa NNE 2.9mph /  4.7km/h 7.0mph /  11.3km/h 66% 0.00in /  0mm 0.0 W/m2
23:27 71.4 °F /  21.9 °C 59.9 °F /  15.5 °C 29.68in /  1005hPa NNW 2.9mph /  4.7km/h 8.0mph /  12.9km/h 67% 0.00in /  0mm 0.0 W/m2
23:33 71.1 °F /  21.7 °C 59.9 °F /  15.5 °C 29.68in /  1005hPa NNE 4.0mph /  6.4km/h 7.0mph /  11.3km/h 68% 0.00in /  0mm 0.0 W/m2
23:39 70.9 °F /  21.6 °C 60.3 °F /  15.7 °C 29.67in /  1004.6hPa NNE 4.0mph /  6.4km/h 7.0mph /  11.3km/h 69% 0.00in /  0mm 0.0 W/m2
23:45 70.3 °F /  21.3 °C 59.7 °F /  15.4 °C 29.67in /  1004.6hPa North 2.9mph /  4.7km/h 6.0mph /  9.7km/h 69% 0.00in /  0mm 0.0 W/m2
23:51 70.2 °F /  21.2 °C 60.3 °F /  15.7 °C 29.67in /  1004.6hPa NNE 0.9mph /  1.4km/h 4.0mph /  6.4km/h 71% 0.00in /  0mm 0.0 W/m2
23:58 69.8 °F /  21 °C 59.9 °F /  15.5 °C 29.67in /  1004.6hPa Calm   4.0mph /  6.4km/h 71% 0.00in /  0mm 0.0 W/m2
Olympia, Windhoek, Namibia
Compliments of Weather Underground - 3 mb